Time;durP1;ratioP1;P1;durP2;ratioP2;P2;SDS_P1;SDS_P2;PMS_P1;PMS_P2;Temp;Humidity;BMP_temperature;BMP_pressure;BME280_temperature;BME280_humidity;BME280_pressure;Samples;Min_cycle;Max_cycle;Signal;HPM_P1;HPM_P2
2022/07/17 00:01:22;;;;;;;63.27;5.47;;;;;;;;;;5092732;28;20484;-67
2022/07/17 00:03:49;;;;;;;60.80;4.67;;;;;;;;;;5092180;28;20809;-67
2022/07/17 00:06:16;;;;;;;61.30;4.50;;;;;;;;;;5092377;28;20542;-67
2022/07/17 00:08:45;;;;;;;61.87;4.97;;;;;;;;;;5092181;28;20446;-68
2022/07/17 00:11:12;;;;;;;60.73;5.10;;;;;;;;;;5092123;28;20481;-67
2022/07/17 00:13:39;;;;;;;61.47;4.70;;;;;;;;;;5091978;28;20537;-68
2022/07/17 00:16:06;;;;;;;61.90;5.67;;;;;;;;;;5092362;28;20482;-67
2022/07/17 00:18:33;;;;;;;61.80;5.70;;;;;;;;;;5091812;28;20962;-68
2022/07/17 00:21:01;;;;;;;61.53;5.20;;;;;;;;;;5092130;28;20442;-67
2022/07/17 00:23:28;;;;;;;61.20;5.87;;;;;;;;;;5091933;28;20450;-68
2022/07/17 00:25:56;;;;;;;63.00;5.67;;;;;;;;;;5092494;28;20444;-68
2022/07/17 00:28:23;;;;;;;61.40;5.70;;;;;;;;;;5091761;28;20447;-68
2022/07/17 00:30:50;;;;;;;63.13;5.83;;;;;;;;;;5091999;28;20490;-68
2022/07/17 00:33:18;;;;;;;62.10;6.13;;;;;;;;;;5091625;28;20483;-68
2022/07/17 00:35:45;;;;;;;64.07;5.37;;;;;;;;;;5091830;28;20468;-68
2022/07/17 00:38:13;;;;;;;60.70;4.70;;;;;;;;;;5091533;28;20453;-68
2022/07/17 00:40:40;;;;;;;61.30;5.43;;;;;;;;;;5091690;28;20797;-68
2022/07/17 00:43:09;;;;;;;61.60;4.97;;;;;;;;;;5091937;28;20444;-68
2022/07/17 00:45:36;;;;;;;61.03;5.20;;;;;;;;;;5091838;28;20470;-68
2022/07/17 00:48:04;;;;;;;62.97;5.33;;;;;;;;;;5091502;28;20444;-68
2022/07/17 00:50:33;;;;;;;60.33;4.70;;;;;;;;;;5091709;28;20929;-68
2022/07/17 00:53:00;;;;;;;63.00;6.07;;;;;;;;;;5091744;28;20443;-68
2022/07/17 00:55:27;;;;;;;62.17;5.40;;;;;;;;;;5091616;28;20471;-67
2022/07/17 00:57:56;;;;;;;64.80;5.10;;;;;;;;;;5091648;28;20442;-68
2022/07/17 01:00:25;;;;;;;62.20;5.50;;;;;;;;;;5091731;28;20966;-68
2022/07/17 01:02:53;;;;;;;63.47;5.20;;;;;;;;;;5091602;28;20454;-68
2022/07/17 01:05:20;;;;;;;60.40;4.80;;;;;;;;;;5089776;28;20462;-69
2022/07/17 01:07:48;;;;;;;70.00;5.80;;;;;;;;;;5091437;28;20446;-67
2022/07/17 01:10:16;;;;;;;61.50;5.00;;;;;;;;;;5091452;28;20483;-68
2022/07/17 01:12:43;;;;;;;61.50;5.40;;;;;;;;;;5091413;28;20446;-68
2022/07/17 01:15:11;;;;;;;60.73;4.43;;;;;;;;;;5091313;28;20466;-69
2022/07/17 01:17:40;;;;;;;62.33;5.17;;;;;;;;;;5091371;28;20454;-68
2022/07/17 01:20:09;;;;;;;62.07;5.40;;;;;;;;;;5091631;28;20448;-68
2022/07/17 01:22:42;;;;;;;61.90;5.87;;;;;;;;;;5091447;28;20443;-68
2022/07/17 01:25:09;;;;;;;60.67;4.73;;;;;;;;;;5091636;28;20540;-68
2022/07/17 01:27:37;;;;;;;60.30;4.60;;;;;;;;;;5091113;28;20457;-68
2022/07/17 01:30:04;;;;;;;60.50;5.03;;;;;;;;;;5091463;28;20486;-68
2022/07/17 01:32:34;;;;;;;60.60;4.20;;;;;;;;;;5091431;28;20532;-69
2022/07/17 01:35:02;;;;;;;61.40;5.47;;;;;;;;;;5091146;28;20485;-68
2022/07/17 01:37:29;;;;;;;61.67;5.00;;;;;;;;;;5091134;28;20457;-67
2022/07/17 01:39:58;;;;;;;61.90;5.40;;;;;;;;;;5091172;28;20446;-69
2022/07/17 01:42:26;;;;;;;61.97;5.30;;;;;;;;;;5091659;28;20533;-69
2022/07/17 01:44:53;;;;;;;60.53;4.77;;;;;;;;;;5093365;28;20468;-69
2022/07/17 01:47:20;;;;;;;65.30;5.37;;;;;;;;;;5094785;28;20450;-69
2022/07/17 01:49:47;;;;;;;63.80;5.50;;;;;;;;;;5094742;28;20943;-67
2022/07/17 01:52:15;;;;;;;61.77;4.90;;;;;;;;;;5094632;28;20446;-68
2022/07/17 01:54:42;;;;;;;61.13;5.10;;;;;;;;;;5094514;28;20469;-69
2022/07/17 01:57:11;;;;;;;61.30;4.87;;;;;;;;;;5094425;28;20456;-63
2022/07/17 01:59:38;;;;;;;60.70;4.90;;;;;;;;;;5094761;28;20468;-69
2022/07/17 02:02:06;;;;;;;61.63;5.53;;;;;;;;;;5094911;28;20878;-68
2022/07/17 02:04:33;;;;;;;63.50;6.00;;;;;;;;;;5094451;28;20523;-68
2022/07/17 02:07:01;;;;;;;61.07;5.27;;;;;;;;;;5094532;28;20446;-69
2022/07/17 02:09:28;;;;;;;60.27;4.67;;;;;;;;;;5094143;28;20449;-69
2022/07/17 02:11:55;;;;;;;62.07;5.20;;;;;;;;;;5094384;28;20485;-69
2022/07/17 02:14:24;;;;;;;61.37;4.67;;;;;;;;;;5094330;28;20472;-69
2022/07/17 02:16:51;;;;;;;61.40;5.13;;;;;;;;;;5094534;28;20455;-67
2022/07/17 02:19:18;;;;;;;62.57;5.33;;;;;;;;;;5094153;28;20536;-69
2022/07/17 02:21:45;;;;;;;61.10;4.90;;;;;;;;;;5094180;28;20442;-68
2022/07/17 02:24:12;;;;;;;61.70;5.30;;;;;;;;;;5094024;28;20996;-69
2022/07/17 02:26:40;;;;;;;63.13;5.33;;;;;;;;;;5094341;28;20449;-68
2022/07/17 02:29:07;;;;;;;60.77;5.30;;;;;;;;;;5093898;28;20444;-69
2022/07/17 02:31:35;;;;;;;60.50;4.93;;;;;;;;;;5094025;28;20514;-68
2022/07/17 02:34:02;;;;;;;61.17;4.93;;;;;;;;;;5093888;28;20480;-68
2022/07/17 02:36:31;;;;;;;61.67;5.80;;;;;;;;;;5094003;28;20470;-68
2022/07/17 02:38:58;;;;;;;60.27;4.40;;;;;;;;;;5093801;28;20446;-68
2022/07/17 02:41:25;;;;;;;61.47;4.93;;;;;;;;;;5093863;28;20537;-69
2022/07/17 02:43:52;;;;;;;62.47;5.10;;;;;;;;;;5093834;28;20557;-68
2022/07/17 02:46:19;;;;;;;62.27;5.40;;;;;;;;;;5093792;28;20447;-69
2022/07/17 02:48:48;;;;;;;60.80;4.90;;;;;;;;;;5093367;28;20457;-68
2022/07/17 02:51:15;;;;;;;60.90;5.40;;;;;;;;;;5093551;28;20548;-68
2022/07/17 02:53:42;;;;;;;61.37;4.93;;;;;;;;;;5093663;28;20564;-69
2022/07/17 02:56:09;;;;;;;63.03;5.60;;;;;;;;;;5093634;28;20824;-69
2022/07/17 02:58:36;;;;;;;60.87;5.17;;;;;;;;;;5093292;28;20816;-67
2022/07/17 03:01:03;;;;;;;61.97;5.73;;;;;;;;;;5093522;28;20445;-68
2022/07/17 03:03:30;;;;;;;60.80;5.07;;;;;;;;;;5093166;28;20446;-68
2022/07/17 03:05:59;;;;;;;62.00;5.93;;;;;;;;;;5093591;28;20447;-69
2022/07/17 03:08:26;;;;;;;62.57;6.07;;;;;;;;;;5093173;28;20452;-69
2022/07/17 03:10:53;;;;;;;61.80;5.73;;;;;;;;;;5093340;28;20482;-68
2022/07/17 03:13:20;;;;;;;63.57;5.27;;;;;;;;;;5093179;28;20943;-69
2022/07/17 03:15:47;;;;;;;61.10;5.47;;;;;;;;;;5093191;28;20446;-68
2022/07/17 03:18:14;;;;;;;62.13;5.50;;;;;;;;;;5092799;28;20532;-69
2022/07/17 03:20:42;;;;;;;61.27;5.30;;;;;;;;;;5093124;28;20927;-68
2022/07/17 03:23:10;;;;;;;61.60;5.40;;;;;;;;;;5092920;28;20453;-66
2022/07/17 03:25:37;;;;;;;61.33;5.37;;;;;;;;;;5092921;28;20474;-67
2022/07/17 03:28:05;;;;;;;61.87;5.50;;;;;;;;;;5092772;28;20450;-66
2022/07/17 03:30:32;;;;;;;61.77;5.90;;;;;;;;;;5092650;28;20444;-69
2022/07/17 03:32:59;;;;;;;63.13;6.20;;;;;;;;;;5092957;28;20446;-65
2022/07/17 03:35:26;;;;;;;64.40;5.50;;;;;;;;;;5092904;28;20462;-69
2022/07/17 03:37:53;;;;;;;63.00;5.83;;;;;;;;;;5092531;28;20528;-67
2022/07/17 03:40:22;;;;;;;61.40;4.80;;;;;;;;;;5092794;28;20453;-69
2022/07/17 03:42:49;;;;;;;63.37;5.60;;;;;;;;;;5092576;28;20533;-68
2022/07/17 03:45:16;;;;;;;61.80;5.20;;;;;;;;;;5093073;28;20548;-69
2022/07/17 03:47:43;;;;;;;60.67;5.10;;;;;;;;;;5092551;28;20446;-66
2022/07/17 03:50:10;;;;;;;61.60;4.50;;;;;;;;;;5092673;28;20438;-66
2022/07/17 03:52:37;;;;;;;61.20;5.47;;;;;;;;;;5092331;28;20499;-66
2022/07/17 03:55:05;;;;;;;60.50;4.40;;;;;;;;;;5092404;28;20554;-69
2022/07/17 03:57:33;;;;;;;61.07;5.03;;;;;;;;;;5092004;28;20446;-69
2022/07/17 04:00:01;;;;;;;59.83;4.33;;;;;;;;;;5092375;28;20446;-66
2022/07/17 04:02:28;;;;;;;61.30;4.40;;;;;;;;;;5092432;28;20446;-66
2022/07/17 04:04:55;;;;;;;60.90;5.10;;;;;;;;;;5092362;28;20467;-67
2022/07/17 04:07:28;;;;;;;61.33;5.07;;;;;;;;;;5091597;28;20445;-68
2022/07/17 04:09:59;;;;;;;63.80;5.23;;;;;;;;;;5092380;28;20478;-69
2022/07/17 04:12:27;;;;;;;60.00;4.37;;;;;;;;;;5092072;28;20994;-68
2022/07/17 04:14:55;;;;;;;64.17;5.13;;;;;;;;;;5092384;28;20462;-69
2022/07/17 04:17:23;;;;;;;60.30;4.60;;;;;;;;;;5091999;28;20445;-66
2022/07/17 04:19:50;;;;;;;60.77;4.60;;;;;;;;;;5092127;28;20449;-69
2022/07/17 04:22:17;;;;;;;62.90;5.73;;;;;;;;;;5092114;28;20545;-69
2022/07/17 04:24:45;;;;;;;60.40;5.00;;;;;;;;;;5091872;28;20553;-65
2022/07/17 04:27:12;;;;;;;60.30;4.40;;;;;;;;;;5091858;28;20454;-67
2022/07/17 04:29:40;;;;;;;61.40;5.40;;;;;;;;;;5092150;28;20454;-68
2022/07/17 04:32:08;;;;;;;60.07;4.53;;;;;;;;;;5091858;28;21029;-68
2022/07/17 04:34:35;;;;;;;62.67;5.80;;;;;;;;;;5091698;28;20484;-68
2022/07/17 04:37:03;;;;;;;64.03;5.80;;;;;;;;;;5091848;28;20446;-68
2022/07/17 04:39:31;;;;;;;61.77;5.40;;;;;;;;;;5091878;28;20897;-69
2022/07/17 04:41:58;;;;;;;65.10;5.37;;;;;;;;;;5091857;28;21006;-69
2022/07/17 04:44:25;;;;;;;61.70;5.50;;;;;;;;;;5091853;28;20466;-68
2022/07/17 04:46:52;;;;;;;61.03;5.60;;;;;;;;;;5091881;28;20446;-68
2022/07/17 04:49:21;;;;;;;60.70;5.03;;;;;;;;;;5091429;28;20967;-69
2022/07/17 04:51:48;;;;;;;60.97;4.83;;;;;;;;;;5091638;28;20525;-68
2022/07/17 04:54:15;;;;;;;60.30;4.50;;;;;;;;;;5091813;28;20498;-69
2022/07/17 04:56:42;;;;;;;62.63;5.30;;;;;;;;;;5091606;28;20446;-68
2022/07/17 04:59:09;;;;;;;61.57;5.47;;;;;;;;;;5091491;28;20449;-68
2022/07/17 05:01:36;;;;;;;61.80;5.47;;;;;;;;;;5091838;28;20853;-69
2022/07/17 05:04:04;;;;;;;61.17;4.30;;;;;;;;;;5091439;28;20466;-68
2022/07/17 05:06:32;;;;;;;61.80;5.50;;;;;;;;;;5091540;28;20533;-69
2022/07/17 05:08:59;;;;;;;62.67;5.37;;;;;;;;;;5091575;28;20689;-68
2022/07/17 05:11:27;;;;;;;60.70;4.77;;;;;;;;;;5091615;28;20478;-68
2022/07/17 05:13:54;;;;;;;60.70;4.60;;;;;;;;;;5091476;28;20561;-67
2022/07/17 05:16:22;;;;;;;61.53;5.40;;;;;;;;;;5091514;28;20552;-68
2022/07/17 05:18:49;;;;;;;62.97;5.00;;;;;;;;;;5091598;28;20842;-68
2022/07/17 05:21:16;;;;;;;61.83;5.60;;;;;;;;;;5095343;28;20443;-68
2022/07/17 05:23:44;;;;;;;61.93;5.67;;;;;;;;;;5095428;28;20466;-68
2022/07/17 05:26:11;;;;;;;60.07;4.53;;;;;;;;;;5095731;28;20453;-68
2022/07/17 05:28:39;;;;;;;61.20;5.60;;;;;;;;;;5095357;28;20446;-69
2022/07/17 05:31:06;;;;;;;61.10;5.30;;;;;;;;;;5095125;28;20443;-68
2022/07/17 05:33:33;;;;;;;60.50;5.53;;;;;;;;;;5094701;28;20469;-69
2022/07/17 05:36:00;;;;;;;60.00;4.60;;;;;;;;;;5095441;28;20542;-69
2022/07/17 05:38:28;;;;;;;62.63;5.40;;;;;;;;;;5095001;28;20460;-68
2022/07/17 05:40:56;;;;;;;62.20;5.43;;;;;;;;;;5094970;28;20537;-68
2022/07/17 05:43:24;;;;;;;60.07;4.63;;;;;;;;;;5094758;28;21033;-69
2022/07/17 05:45:51;;;;;;;60.57;4.80;;;;;;;;;;5094854;28;20481;-68
2022/07/17 05:48:18;;;;;;;61.40;5.73;;;;;;;;;;5094542;28;20450;-67
2022/07/17 05:50:45;;;;;;;60.47;4.57;;;;;;;;;;5094976;28;20453;-68
2022/07/17 05:53:12;;;;;;;60.40;4.80;;;;;;;;;;5094580;28;20569;-69
2022/07/17 05:55:39;;;;;;;60.30;5.10;;;;;;;;;;5094775;28;20465;-68
2022/07/17 05:58:08;;;;;;;60.90;5.13;;;;;;;;;;5094503;28;20450;-69
2022/07/17 06:00:35;;;;;;;60.10;4.60;;;;;;;;;;5094587;28;20450;-68
2022/07/17 06:03:02;;;;;;;61.87;5.40;;;;;;;;;;5094704;28;20750;-69
2022/07/17 06:05:29;;;;;;;60.53;4.53;;;;;;;;;;5094587;28;20471;-68
2022/07/17 06:07:57;;;;;;;60.10;4.37;;;;;;;;;;5094277;28;20464;-69
2022/07/17 06:10:24;;;;;;;60.80;4.47;;;;;;;;;;5094443;28;20493;-69
2022/07/17 06:12:52;;;;;;;60.67;5.40;;;;;;;;;;5094298;28;20488;-68
2022/07/17 06:15:21;;;;;;;60.70;4.20;;;;;;;;;;5094153;28;20495;-67
2022/07/17 06:17:48;;;;;;;60.70;4.30;;;;;;;;;;5094027;28;20935;-69
2022/07/17 06:20:16;;;;;;;59.57;3.90;;;;;;;;;;5094244;28;20449;-67
2022/07/17 06:22:43;;;;;;;60.97;4.90;;;;;;;;;;5094199;28;20446;-68
2022/07/17 06:25:11;;;;;;;61.20;5.03;;;;;;;;;;5094100;28;20838;-67
2022/07/17 06:27:40;;;;;;;59.80;4.10;;;;;;;;;;5093749;28;20443;-67
2022/07/17 06:30:08;;;;;;;60.27;4.63;;;;;;;;;;5093713;28;20448;-68
2022/07/17 06:32:36;;;;;;;60.20;4.47;;;;;;;;;;5094190;28;20489;-69
2022/07/17 06:35:04;;;;;;;59.87;3.83;;;;;;;;;;5094261;28;20481;-68
2022/07/17 06:37:31;;;;;;;59.70;3.93;;;;;;;;;;5094069;28;20446;-69
2022/07/17 06:39:58;;;;;;;60.67;4.07;;;;;;;;;;5094332;28;20449;-67
2022/07/17 06:42:25;;;;;;;60.47;4.43;;;;;;;;;;5094176;28;20457;-68
2022/07/17 06:44:52;;;;;;;61.37;4.87;;;;;;;;;;5094230;28;20476;-68
2022/07/17 06:47:19;;;;;;;60.80;4.67;;;;;;;;;;5094012;28;20448;-68
2022/07/17 06:49:48;;;;;;;60.00;4.23;;;;;;;;;;5094075;28;20455;-69
2022/07/17 06:52:15;;;;;;;59.90;4.20;;;;;;;;;;5094129;28;20485;-68
2022/07/17 06:54:42;;;;;;;59.80;4.40;;;;;;;;;;5094111;28;20466;-69
2022/07/17 06:57:09;;;;;;;59.67;4.43;;;;;;;;;;5093853;28;20445;-68
2022/07/17 06:59:36;;;;;;;60.37;4.10;;;;;;;;;;5094015;28;20439;-68
2022/07/17 07:02:04;;;;;;;59.47;3.93;;;;;;;;;;5093566;28;20883;-69
2022/07/17 07:04:31;;;;;;;60.17;3.90;;;;;;;;;;5093455;28;20477;-68
2022/07/17 07:07:00;;;;;;;60.53;4.30;;;;;;;;;;5093521;28;20931;-67
2022/07/17 07:09:28;;;;;;;59.70;4.30;;;;;;;;;;5093595;28;20825;-68
2022/07/17 07:11:55;;;;;;;61.30;4.23;;;;;;;;;;5093492;28;20486;-68
2022/07/17 07:14:22;;;;;;;59.67;4.33;;;;;;;;;;5093290;28;20967;-69
2022/07/17 07:16:49;;;;;;;59.67;4.13;;;;;;;;;;5093323;28;20872;-68
2022/07/17 07:19:16;;;;;;;60.33;4.37;;;;;;;;;;5093153;28;20438;-69
2022/07/17 07:21:43;;;;;;;59.30;3.80;;;;;;;;;;5093233;28;20442;-68
2022/07/17 07:24:12;;;;;;;59.07;3.53;;;;;;;;;;5093395;28;20470;-68
2022/07/17 07:26:39;;;;;;;59.50;4.00;;;;;;;;;;5093308;28;20449;-68
2022/07/17 07:29:06;;;;;;;59.20;3.67;;;;;;;;;;5092913;28;20443;-69
2022/07/17 07:31:33;;;;;;;59.50;3.80;;;;;;;;;;5092996;28;20837;-67
2022/07/17 07:34:00;;;;;;;62.57;4.20;;;;;;;;;;5092852;28;20478;-68
2022/07/17 07:36:28;;;;;;;58.97;3.70;;;;;;;;;;5092782;28;20957;-68
2022/07/17 07:38:55;;;;;;;61.53;4.23;;;;;;;;;;5092784;28;20446;-69
2022/07/17 07:41:23;;;;;;;60.77;3.90;;;;;;;;;;5092510;28;20457;-68
2022/07/17 07:43:50;;;;;;;60.97;4.10;;;;;;;;;;5092869;28;20473;-68
2022/07/17 07:46:18;;;;;;;59.07;3.53;;;;;;;;;;5092869;28;20453;-69
2022/07/17 07:48:45;;;;;;;60.70;3.80;;;;;;;;;;5092544;28;20446;-68
2022/07/17 07:51:12;;;;;;;61.57;3.90;;;;;;;;;;5093170;28;20446;-67
2022/07/17 07:53:39;;;;;;;59.13;3.40;;;;;;;;;;5092518;28;20595;-69
2022/07/17 07:56:06;;;;;;;60.17;3.40;;;;;;;;;;5092846;28;20434;-68
2022/07/17 07:58:35;;;;;;;60.57;3.80;;;;;;;;;;5092732;28;20442;-68
2022/07/17 08:01:02;;;;;;;58.90;3.30;;;;;;;;;;5092723;28;20446;-67
2022/07/17 08:03:29;;;;;;;59.40;3.10;;;;;;;;;;5092522;28;20438;-68
2022/07/17 08:05:56;;;;;;;58.90;3.80;;;;;;;;;;5092830;28;21000;-68
2022/07/17 08:08:23;;;;;;;59.47;3.50;;;;;;;;;;5092164;28;20449;-69
2022/07/17 08:10:50;;;;;;;59.40;3.30;;;;;;;;;;5092727;28;20448;-68
2022/07/17 08:13:18;;;;;;;59.40;3.70;;;;;;;;;;5092367;28;20478;-68
2022/07/17 08:15:46;;;;;;;59.70;4.00;;;;;;;;;;5092370;28;20466;-68
2022/07/17 08:18:13;;;;;;;60.57;3.20;;;;;;;;;;5092150;28;20537;-69
2022/07/17 08:20:41;;;;;;;59.27;3.50;;;;;;;;;;5092603;28;20450;-68
2022/07/17 08:23:08;;;;;;;58.57;3.10;;;;;;;;;;5092588;28;20890;-69
2022/07/17 08:25:35;;;;;;;58.90;3.03;;;;;;;;;;5092319;28;20842;-68
2022/07/17 08:28:03;;;;;;;58.87;3.27;;;;;;;;;;5092264;28;20456;-69
2022/07/17 08:30:34;;;;;;;58.80;2.90;;;;;;;;;;5092431;28;20447;-69
2022/07/17 08:33:02;;;;;;;59.27;3.97;;;;;;;;;;5092194;28;21029;-68
2022/07/17 08:35:30;;;;;;;58.87;3.60;;;;;;;;;;5092404;28;20469;-68
2022/07/17 08:38:00;;;;;;;58.70;3.00;;;;;;;;;;5092323;28;20456;-68
2022/07/17 08:40:27;;;;;;;59.30;3.10;;;;;;;;;;5092719;28;20796;-69
2022/07/17 08:42:55;;;;;;;59.00;3.20;;;;;;;;;;5092372;28;20445;-69
2022/07/17 08:45:22;;;;;;;58.60;2.90;;;;;;;;;;5092612;28;20466;-68
2022/07/17 08:47:51;;;;;;;58.97;2.90;;;;;;;;;;5092421;28;20449;-69
2022/07/17 08:50:22;;;;;;;62.57;3.50;;;;;;;;;;5092786;28;20454;-69
2022/07/17 08:52:49;;;;;;;58.67;3.20;;;;;;;;;;5092913;28;20482;-69
2022/07/17 08:55:16;;;;;;;59.27;3.47;;;;;;;;;;5097244;28;21014;-69
2022/07/17 08:57:44;;;;;;;59.10;3.50;;;;;;;;;;5096504;28;20525;-69
2022/07/17 09:00:12;;;;;;;59.30;3.40;;;;;;;;;;5096883;28;20446;-68
2022/07/17 09:02:40;;;;;;;64.10;4.20;;;;;;;;;;5096998;28;20522;-69
2022/07/17 09:05:08;;;;;;;58.87;3.40;;;;;;;;;;5096294;28;20473;-69
2022/07/17 09:07:46;;;;;;;59.47;3.20;;;;;;;;;;5096634;28;20453;-68
2022/07/17 09:10:13;;;;;;;58.30;3.10;;;;;;;;;;5096465;28;20454;-67
2022/07/17 09:12:41;;;;;;;58.40;2.93;;;;;;;;;;5096429;28;20872;-66
2022/07/17 09:15:15;;;;;;;58.73;3.10;;;;;;;;;;5096315;28;20475;-67
2022/07/17 09:17:49;;;;;;;58.80;3.30;;;;;;;;;;5096166;28;20529;-66
2022/07/17 09:20:16;;;;;;;58.63;3.10;;;;;;;;;;5097132;28;20448;-67
2022/07/17 09:22:45;;;;;;;58.70;3.23;;;;;;;;;;5096611;28;20505;-67
2022/07/17 09:25:13;;;;;;;60.97;3.23;;;;;;;;;;5096375;28;21050;-68
2022/07/17 09:27:40;;;;;;;60.17;3.00;;;;;;;;;;5096481;28;20490;-66
2022/07/17 09:30:09;;;;;;;58.90;2.90;;;;;;;;;;5096982;28;20449;-67
2022/07/17 09:32:37;;;;;;;58.70;3.13;;;;;;;;;;5097208;28;20480;-68
2022/07/17 09:35:05;;;;;;;58.70;2.90;;;;;;;;;;5097162;28;20484;-68
2022/07/17 09:37:33;;;;;;;60.43;3.40;;;;;;;;;;5097407;28;20448;-67
2022/07/17 09:40:02;;;;;;;59.70;3.13;;;;;;;;;;5097472;28;20460;-68
2022/07/17 09:42:30;;;;;;;58.60;3.13;;;;;;;;;;5097608;28;20446;-68
2022/07/17 09:44:58;;;;;;;58.50;3.17;;;;;;;;;;5097026;28;20467;-67
2022/07/17 09:47:25;;;;;;;58.70;3.20;;;;;;;;;;5096896;28;20457;-67
2022/07/17 09:49:54;;;;;;;61.03;3.47;;;;;;;;;;5097922;28;20545;-68
2022/07/17 09:52:21;;;;;;;58.17;2.47;;;;;;;;;;5097061;28;21033;-68
2022/07/17 09:54:49;;;;;;;59.67;2.90;;;;;;;;;;5096801;28;20552;-69
2022/07/17 09:57:18;;;;;;;58.17;2.67;;;;;;;;;;5096722;28;20445;-68
2022/07/17 09:59:47;;;;;;;59.10;3.10;;;;;;;;;;5098136;28;21029;-68
2022/07/17 10:02:14;;;;;;;59.07;2.80;;;;;;;;;;5096845;28;20461;-66
2022/07/17 10:04:41;;;;;;;58.60;2.63;;;;;;;;;;5095388;28;20581;-69
2022/07/17 10:07:09;;;;;;;58.57;2.90;;;;;;;;;;5097680;28;20533;-68
2022/07/17 10:09:36;;;;;;;58.87;3.10;;;;;;;;;;5097974;28;20450;-68
2022/07/17 10:12:04;;;;;;;58.70;2.50;;;;;;;;;;5096327;28;20525;-69
2022/07/17 10:14:32;;;;;;;65.90;3.23;;;;;;;;;;5096560;28;20550;-68
2022/07/17 10:17:07;;;;;;;58.07;2.67;;;;;;;;;;5095810;28;20874;-68
2022/07/17 10:19:35;;;;;;;59.20;2.70;;;;;;;;;;5095280;28;20495;-69
2022/07/17 10:22:05;;;;;;;58.50;2.93;;;;;;;;;;5097059;28;20905;-68
2022/07/17 10:24:33;;;;;;;58.57;3.03;;;;;;;;;;5095801;28;20502;-68
2022/07/17 10:27:00;;;;;;;58.23;2.90;;;;;;;;;;5096058;28;20447;-67
2022/07/17 10:29:35;;;;;;;58.10;2.70;;;;;;;;;;5094576;28;20478;-69
2022/07/17 10:32:05;;;;;;;58.07;2.50;;;;;;;;;;5095004;28;20485;-68
2022/07/17 10:34:42;;;;;;;58.60;2.90;;;;;;;;;;5094500;28;21056;-70
2022/07/17 10:37:16;;;;;;;57.87;2.40;;;;;;;;;;5097313;28;20449;-70
2022/07/17 10:39:53;;;;;;;57.23;2.40;;;;;;;;;;5096445;28;20530;-67
2022/07/17 10:42:35;;;;;;;58.07;2.60;;;;;;;;;;5096775;28;20822;-67
2022/07/17 10:45:08;;;;;;;57.23;2.57;;;;;;;;;;5094301;28;21065;-68
2022/07/17 10:47:44;;;;;;;57.47;2.67;;;;;;;;;;5095011;28;20460;-68
2022/07/17 10:50:12;;;;;;;56.97;2.50;;;;;;;;;;5094172;28;20544;-68
2022/07/17 10:52:40;;;;;;;57.40;2.80;;;;;;;;;;5095339;28;20826;-68
2022/07/17 10:55:07;;;;;;;56.97;2.50;;;;;;;;;;5094885;28;20477;-68
2022/07/17 10:57:34;;;;;;;57.20;2.60;;;;;;;;;;5094407;28;20453;-69
2022/07/17 11:00:02;;;;;;;56.90;2.47;;;;;;;;;;5094000;28;20541;-68
2022/07/17 11:02:31;;;;;;;57.30;3.10;;;;;;;;;;5094561;28;20447;-68
2022/07/17 11:05:06;;;;;;;57.50;3.00;;;;;;;;;;5093991;28;20485;-69
2022/07/17 11:07:33;;;;;;;56.60;2.90;;;;;;;;;;5093741;28;20446;-67
2022/07/17 11:10:01;;;;;;;57.03;3.03;;;;;;;;;;5094805;28;20453;-68
2022/07/17 11:12:32;;;;;;;57.40;2.53;;;;;;;;;;5093820;28;20446;-69
2022/07/17 11:15:02;;;;;;;57.33;2.50;;;;;;;;;;5094018;28;20750;-69
2022/07/17 11:17:31;;;;;;;56.07;2.30;;;;;;;;;;5092276;28;20697;-68
2022/07/17 11:19:59;;;;;;;57.57;2.40;;;;;;;;;;5094418;28;20442;-69
2022/07/17 11:22:27;;;;;;;56.77;2.40;;;;;;;;;;5093156;28;20486;-69
2022/07/17 11:24:55;;;;;;;56.77;2.53;;;;;;;;;;5093279;28;20493;-68
2022/07/17 11:27:22;;;;;;;56.70;2.60;;;;;;;;;;5093839;28;20529;-67
2022/07/17 11:29:51;;;;;;;57.00;2.50;;;;;;;;;;5094655;28;20478;-68
2022/07/17 11:32:18;;;;;;;56.47;2.43;;;;;;;;;;5094001;28;20442;-67
2022/07/17 11:34:47;;;;;;;56.70;2.40;;;;;;;;;;5093956;28;20496;-69
2022/07/17 11:37:15;;;;;;;55.60;2.50;;;;;;;;;;5093966;28;20541;-68
2022/07/17 11:39:42;;;;;;;57.20;2.33;;;;;;;;;;5093343;28;20672;-69
2022/07/17 11:42:11;;;;;;;58.10;2.60;;;;;;;;;;5092858;28;20446;-69
2022/07/17 11:44:38;;;;;;;56.73;2.50;;;;;;;;;;5092618;28;20570;-68
2022/07/17 11:47:06;;;;;;;57.80;2.40;;;;;;;;;;5093403;28;20860;-70
2022/07/17 11:49:34;;;;;;;56.50;2.50;;;;;;;;;;5093168;28;20533;-69
2022/07/17 11:52:09;;;;;;;57.10;2.40;;;;;;;;;;5094152;28;20549;-69
2022/07/17 11:54:44;;;;;;;56.47;2.40;;;;;;;;;;5092895;28;20465;-69
2022/07/17 11:57:12;;;;;;;56.37;2.20;;;;;;;;;;5093401;28;20450;-69
2022/07/17 11:59:39;;;;;;;56.90;2.40;;;;;;;;;;5093359;28;20443;-69
2022/07/17 12:02:10;;;;;;;56.40;2.40;;;;;;;;;;5093153;28;20541;-69
2022/07/17 12:04:37;;;;;;;56.27;2.20;;;;;;;;;;5092837;28;20561;-69
2022/07/17 12:07:06;;;;;;;56.47;2.73;;;;;;;;;;5092477;28;20457;-69
2022/07/17 12:09:34;;;;;;;56.07;2.50;;;;;;;;;;5092488;28;20503;-69
2022/07/17 12:12:02;;;;;;;56.13;2.23;;;;;;;;;;5092901;28;20454;-69
2022/07/17 12:14:29;;;;;;;56.23;2.20;;;;;;;;;;5093704;28;21013;-69
2022/07/17 12:16:57;;;;;;;56.60;2.53;;;;;;;;;;5093234;28;20458;-69
2022/07/17 12:19:25;;;;;;;56.93;2.43;;;;;;;;;;5092700;28;20762;-69
2022/07/17 12:21:54;;;;;;;57.07;2.50;;;;;;;;;;5093129;28;20454;-69
2022/07/17 12:24:28;;;;;;;56.40;2.23;;;;;;;;;;5092807;28;20494;-68
2022/07/17 12:26:56;;;;;;;56.20;2.30;;;;;;;;;;5093115;28;20442;-67
2022/07/17 12:29:23;;;;;;;56.87;2.23;;;;;;;;;;5091859;28;20460;-69
2022/07/17 12:31:50;;;;;;;55.93;2.00;;;;;;;;;;5091979;28;20453;-69
2022/07/17 12:34:17;;;;;;;56.40;2.20;;;;;;;;;;5092400;28;20470;-68
2022/07/17 12:36:45;;;;;;;56.50;2.40;;;;;;;;;;5092956;28;20496;-69
2022/07/17 12:39:12;;;;;;;56.20;2.30;;;;;;;;;;5092945;28;20867;-68
2022/07/17 12:41:40;;;;;;;57.20;2.70;;;;;;;;;;5092965;28;20448;-69
2022/07/17 12:44:08;;;;;;;55.80;2.40;;;;;;;;;;5093089;28;20486;-68
2022/07/17 12:46:35;;;;;;;56.90;2.50;;;;;;;;;;5092266;28;20451;-69
2022/07/17 12:49:02;;;;;;;56.47;2.20;;;;;;;;;;5092860;28;20442;-69
2022/07/17 12:51:30;;;;;;;57.27;2.10;;;;;;;;;;5092243;28;20967;-69
2022/07/17 12:53:57;;;;;;;56.67;2.47;;;;;;;;;;5093223;28;20471;-69
2022/07/17 12:56:24;;;;;;;56.03;2.17;;;;;;;;;;5093266;28;20538;-68
2022/07/17 12:58:53;;;;;;;57.40;2.70;;;;;;;;;;5092537;28;20454;-69
2022/07/17 13:01:20;;;;;;;56.37;2.40;;;;;;;;;;5092052;28;20478;-68
2022/07/17 13:03:48;;;;;;;56.80;2.30;;;;;;;;;;5092716;28;20492;-70
2022/07/17 13:06:15;;;;;;;56.80;2.57;;;;;;;;;;5093076;28;20538;-69
2022/07/17 13:08:43;;;;;;;56.90;2.20;;;;;;;;;;5092521;28;20481;-69
2022/07/17 13:11:10;;;;;;;56.73;2.50;;;;;;;;;;5092327;28;21006;-70
2022/07/17 13:13:37;;;;;;;56.90;2.70;;;;;;;;;;5092147;28;21004;-69
2022/07/17 13:16:06;;;;;;;57.00;2.37;;;;;;;;;;5091922;28;20545;-70
2022/07/17 13:18:33;;;;;;;56.30;2.10;;;;;;;;;;5091778;28;20453;-69
2022/07/17 13:21:00;;;;;;;55.97;2.20;;;;;;;;;;5092081;28;20698;-70
2022/07/17 13:23:27;;;;;;;55.90;2.23;;;;;;;;;;5091698;28;20938;-70
2022/07/17 13:25:55;;;;;;;56.23;2.30;;;;;;;;;;5091717;28;20545;-69
2022/07/17 13:28:22;;;;;;;56.37;2.20;;;;;;;;;;5091485;28;20453;-70
2022/07/17 13:30:49;;;;;;;55.97;2.40;;;;;;;;;;5092443;28;20837;-69
2022/07/17 13:33:17;;;;;;;55.77;2.30;;;;;;;;;;5091512;28;20535;-70
2022/07/17 13:35:45;;;;;;;56.47;2.50;;;;;;;;;;5091725;28;20469;-70
2022/07/17 13:38:12;;;;;;;56.67;2.23;;;;;;;;;;5091630;28;20478;-70
2022/07/17 13:40:39;;;;;;;56.17;2.37;;;;;;;;;;5093546;28;20521;-70
2022/07/17 13:43:06;;;;;;;56.03;2.30;;;;;;;;;;5095625;28;20513;-70
2022/07/17 13:45:33;;;;;;;56.77;2.53;;;;;;;;;;5095480;28;20486;-70
2022/07/17 13:48:01;;;;;;;58.17;2.83;;;;;;;;;;5095527;28;20455;-69
2022/07/17 13:50:29;;;;;;;56.27;2.10;;;;;;;;;;5095339;28;20442;-69
2022/07/17 13:52:57;;;;;;;56.57;2.30;;;;;;;;;;5095195;28;20484;-70
2022/07/17 13:55:24;;;;;;;56.67;2.17;;;;;;;;;;5094898;28;20473;-69
2022/07/17 13:57:51;;;;;;;56.23;2.30;;;;;;;;;;5095144;28;20555;-68
2022/07/17 14:00:19;;;;;;;56.80;2.60;;;;;;;;;;5096112;28;20438;-69
2022/07/17 14:02:46;;;;;;;61.20;2.20;;;;;;;;;;5096039;28;20443;-69
2022/07/17 14:05:13;;;;;;;57.40;2.80;;;;;;;;;;5095870;28;20508;-69
2022/07/17 14:07:41;;;;;;;56.27;2.40;;;;;;;;;;5095532;28;20447;-69
2022/07/17 14:10:09;;;;;;;56.90;2.57;;;;;;;;;;5095735;28;20843;-69
2022/07/17 14:12:37;;;;;;;56.57;2.30;;;;;;;;;;5095202;28;20482;-71
2022/07/17 14:15:04;;;;;;;56.57;2.40;;;;;;;;;;5095205;28;20458;-70
2022/07/17 14:17:31;;;;;;;56.57;2.40;;;;;;;;;;5095230;28;20813;-69
2022/07/17 14:19:58;;;;;;;56.47;2.47;;;;;;;;;;5095545;28;20530;-69
2022/07/17 14:22:25;;;;;;;56.60;2.10;;;;;;;;;;5094919;28;20541;-69
2022/07/17 14:24:54;;;;;;;56.60;2.60;;;;;;;;;;5095825;28;20482;-69
2022/07/17 14:27:21;;;;;;;57.67;2.87;;;;;;;;;;5095182;28;20451;-69
2022/07/17 14:29:48;;;;;;;57.00;2.57;;;;;;;;;;5094465;28;20721;-69
2022/07/17 14:32:16;;;;;;;56.60;2.20;;;;;;;;;;5094217;28;20950;-69
2022/07/17 14:34:43;;;;;;;57.50;2.37;;;;;;;;;;5095235;28;20470;-69